Time;durP1;ratioP1;P1;durP2;ratioP2;P2;SDS_P1;SDS_P2;PMS_P1;PMS_P2;Temp;Humidity;BMP_temperature;BMP_pressure;BME280_temperature;BME280_humidity;BME280_pressure;Samples;Min_cycle;Max_cycle;Signal;HPM_P1;HPM_P2
2022/12/09 00:01:19;;;;;;;46.63;23.42;;;;;;;2.79;73.99;97754.34;5050392;28;20032;-74
2022/12/09 00:03:45;;;;;;;46.20;22.40;;;;;;;2.78;74.16;97755.41;5050854;28;20024;-75
2022/12/09 00:06:15;;;;;;;45.35;22.90;;;;;;;2.77;73.97;97761.91;5050148;28;20017;-76
2022/12/09 00:08:40;;;;;;;51.72;27.55;;;;;;;2.73;73.67;97755.38;5048732;28;20043;-82
2022/12/09 00:11:06;;;;;;;49.28;23.52;;;;;;;2.73;74.33;97761.63;5048372;28;20025;-78
2022/12/09 00:13:32;;;;;;;42.92;20.75;;;;;;;2.75;74.29;97766.75;5050029;28;20047;-76
2022/12/09 00:15:58;;;;;;;39.50;20.58;;;;;;;2.76;74.58;97779.22;5048495;28;20473;-77
2022/12/09 00:18:23;;;;;;;37.22;20.10;;;;;;;2.76;74.32;97777.34;5048967;28;20021;-77
2022/12/09 00:20:48;;;;;;;39.60;18.98;;;;;;;2.75;74.21;97769.47;5048887;28;20023;-77
2022/12/09 00:23:14;;;;;;;38.72;18.58;;;;;;;2.74;73.77;97767.84;5048214;28;20119;-77
2022/12/09 00:25:39;;;;;;;39.78;18.98;;;;;;;2.72;74.35;97775.41;5049567;28;20041;-77
2022/12/09 00:28:05;;;;;;;42.25;20.15;;;;;;;2.70;73.85;97775.69;5047913;28;20036;-77
2022/12/09 00:30:30;;;;;;;36.17;19.08;;;;;;;2.71;74.43;97771.91;5049255;28;20025;-77
2022/12/09 00:32:56;;;;;;;35.65;18.13;;;;;;;2.73;74.57;97768.91;5049553;28;20760;-77
2022/12/09 00:35:22;;;;;;;33.53;16.92;;;;;;;2.75;74.63;97775.72;5049807;28;20049;-78
2022/12/09 00:37:50;;;;;;;34.85;17.42;;;;;;;2.77;74.75;97778.16;5048915;28;20075;-77
2022/12/09 00:40:15;;;;;;;39.05;18.60;;;;;;;2.76;74.53;97777.34;5049591;28;20028;-77
2022/12/09 00:42:40;;;;;;;31.75;17.17;;;;;;;2.72;74.29;97786.25;5049528;28;20017;-78
2022/12/09 00:45:07;;;;;;;35.33;18.30;;;;;;;2.69;74.16;97787.59;5049192;28;20028;-77
2022/12/09 00:47:33;;;;;;;31.77;16.55;;;;;;;2.68;74.25;97794.88;5048799;28;20082;-78
2022/12/09 00:49:58;;;;;;;29.83;15.85;;;;;;;2.68;74.44;97802.19;5047060;28;20055;-78
2022/12/09 00:52:24;;;;;;;29.23;15.48;;;;;;;2.66;74.71;97798.94;5046955;28;20653;-78
2022/12/09 00:54:49;;;;;;;24.05;14.57;;;;;;;2.66;74.09;97805.16;5049311;28;20041;-78
2022/12/09 00:57:14;;;;;;;28.58;14.60;;;;;;;2.64;74.13;97801.09;5047736;28;20033;-78
2022/12/09 00:59:40;;;;;;;26.15;14.02;;;;;;;2.66;74.38;97802.44;5048805;28;20159;-78
2022/12/09 01:02:05;;;;;;;27.15;15.25;;;;;;;2.67;75.05;97800.56;5048642;28;20029;-78
2022/12/09 01:04:31;;;;;;;20.67;12.80;;;;;;;2.65;75.07;97792.69;5049003;28;20044;-77
2022/12/09 01:06:56;;;;;;;30.58;14.57;;;;;;;2.64;75.17;97801.09;5047521;28;20021;-77
2022/12/09 01:09:21;;;;;;;28.02;16.08;;;;;;;2.61;74.30;97796.19;5048979;28;20029;-77
2022/12/09 01:11:47;;;;;;;23.05;13.40;;;;;;;2.61;74.25;97799.72;5048902;28;20397;-77
2022/12/09 01:14:12;;;;;;;24.13;13.68;;;;;;;2.62;74.77;97804.06;5049441;28;20543;-77
2022/12/09 01:16:38;;;;;;;23.20;12.57;;;;;;;2.59;75.08;97801.88;5049193;28;20108;-77
2022/12/09 01:19:06;;;;;;;23.00;12.38;;;;;;;2.62;74.39;97800.53;5052952;28;20497;-77
2022/12/09 01:21:34;;;;;;;23.38;13.40;;;;;;;2.62;74.57;97798.66;5052731;28;20059;-77
2022/12/09 01:24:00;;;;;;;20.30;12.10;;;;;;;2.63;74.24;97800.28;5053070;28;20025;-77
2022/12/09 01:26:27;;;;;;;21.58;12.38;;;;;;;2.62;74.24;97792.41;5053151;28;20044;-77
2022/12/09 01:28:54;;;;;;;19.20;11.70;;;;;;;2.62;74.98;97795.13;5052667;28;20086;-78
2022/12/09 01:31:21;;;;;;;21.58;11.40;;;;;;;2.61;74.26;97798.91;5052221;28;20051;-77
2022/12/09 01:33:47;;;;;;;23.30;12.27;;;;;;;2.63;74.59;97791.34;5052888;28;20070;-77
2022/12/09 01:36:16;;;;;;;20.85;11.13;;;;;;;2.63;74.94;97789.47;5052878;28;20490;-76
2022/12/09 01:38:42;;;;;;;20.52;11.25;;;;;;;2.64;74.82;97780.25;5052578;28;20554;-77
2022/12/09 01:41:08;;;;;;;20.50;10.40;;;;;;;2.64;75.18;97780.25;5052702;28;20029;-77
2022/12/09 01:43:34;;;;;;;17.65;10.60;;;;;;;2.63;74.68;97777.81;5052912;28;20028;-77
2022/12/09 01:45:59;;;;;;;24.02;13.15;;;;;;;2.61;74.84;97769.94;5052495;28;20029;-77
2022/12/09 01:48:29;;;;;;;17.85;10.30;;;;;;;2.59;74.52;97765.84;5052449;28;20432;-77
2022/12/09 01:51:02;;;;;;;19.15;10.85;;;;;;;2.57;75.12;97766.13;5052610;28;20029;-77
2022/12/09 01:53:34;;;;;;;18.30;10.63;;;;;;;2.58;75.03;97765.06;5051192;28;20489;-77
2022/12/09 01:56:04;;;;;;;20.75;10.63;;;;;;;2.57;75.02;97770.72;5052789;28;20318;-77
2022/12/09 01:58:30;;;;;;;26.10;13.23;;;;;;;2.58;75.36;97769.63;5052536;28;20477;-77
2022/12/09 02:00:55;;;;;;;26.20;14.27;;;;;;;2.58;74.73;97758.81;5051078;28;20377;-77
2022/12/09 02:03:21;;;;;;;17.30;10.60;;;;;;;2.57;74.62;97757.19;5050956;28;20029;-77
2022/12/09 02:05:47;;;;;;;16.13;8.85;;;;;;;2.56;74.89;97744.72;5052736;28;20017;-77
2022/12/09 02:08:15;;;;;;;15.38;8.68;;;;;;;2.59;75.29;97752.31;5034310;28;20040;-77
2022/12/09 02:11:05;;;;;;;13.68;8.18;;;;;;;2.62;75.51;97751.81;5052552;28;20040;-77
2022/12/09 02:13:50;;;;;;;14.90;8.80;;;;;;;2.63;74.78;97751.56;5050554;28;20515;-77
2022/12/09 02:16:20;;;;;;;17.98;11.30;;;;;;;2.64;74.59;97753.19;5051988;28;20037;-77
2022/12/09 02:19:13;;;;;;;16.67;9.45;;;;;;;2.66;75.20;97748.28;5050487;28;20043;-77
2022/12/09 02:21:58;;;;;;;13.98;8.48;;;;;;;2.64;75.00;97753.19;5050052;28;20032;-77
2022/12/09 02:24:41;;;;;;;13.25;8.43;;;;;;;2.64;75.04;97750.47;5052146;28;20377;-77
2022/12/09 02:27:13;;;;;;;25.33;12.20;;;;;;;2.64;75.35;97746.94;5050580;28;20025;-76
2022/12/09 02:29:57;;;;;;;28.15;13.45;;;;;;;2.58;75.63;97748.81;5048459;28;20449;-77
2022/12/09 02:32:37;;;;;;;18.17;10.65;;;;;;;2.59;75.13;97747.75;5049918;28;20477;-77
2022/12/09 02:35:14;;;;;;;14.50;9.73;;;;;;;2.58;74.89;97747.97;5049689;28;20109;-77
2022/12/09 02:38:09;;;;;;;11.68;7.80;;;;;;;2.54;75.72;97736.88;5050746;28;20749;-77
2022/12/09 02:40:44;;;;;;;14.98;8.25;;;;;;;2.56;75.31;97742.84;5050361;28;20135;-76
2022/12/09 02:43:11;;;;;;;25.58;11.02;;;;;;;2.56;75.23;97740.13;5052075;28;20887;-77
2022/12/09 02:45:40;;;;;;;15.25;8.23;;;;;;;2.55;75.49;97735.78;5051379;28;20480;-77
2022/12/09 02:48:08;;;;;;;17.70;9.20;;;;;;;2.57;75.49;97732.81;5050559;28;20521;-76
2022/12/09 02:50:37;;;;;;;13.57;8.73;;;;;;;2.56;75.09;97734.72;5051818;28;20025;-77
2022/12/09 02:53:06;;;;;;;11.77;7.28;;;;;;;2.55;75.12;97735.78;5051586;28;20049;-77
2022/12/09 02:55:34;;;;;;;11.25;7.15;;;;;;;2.56;75.31;97733.88;5051388;28;20063;-77
2022/12/09 02:58:00;;;;;;;10.40;7.35;;;;;;;2.55;75.14;97729.56;5051504;28;20029;-77
2022/12/09 03:00:26;;;;;;;18.75;9.85;;;;;;;2.54;75.43;97736.88;5051703;28;20116;-77
2022/12/09 03:02:59;;;;;;;18.60;9.85;;;;;;;2.51;74.97;97729.28;5050394;28;20484;-77
2022/12/09 03:05:45;;;;;;;18.90;10.18;;;;;;;2.50;75.01;97736.56;5051027;28;20025;-76
2022/12/09 03:08:26;;;;;;;21.98;11.82;;;;;;;2.47;74.99;97737.09;5049932;28;20025;-76
2022/12/09 03:11:10;;;;;;;15.50;10.30;;;;;;;2.44;75.97;97732.22;5050205;28;20548;-76
2022/12/09 03:13:38;;;;;;;14.35;9.40;;;;;;;2.46;75.23;97730.03;5051540;28;20052;-77
2022/12/09 03:16:28;;;;;;;13.00;8.45;;;;;;;2.46;75.76;97732.75;5050846;28;20036;-76
2022/12/09 03:18:59;;;;;;;16.15;9.13;;;;;;;2.46;75.68;97729.25;5050104;28;20033;-77
2022/12/09 03:21:27;;;;;;;17.15;11.05;;;;;;;2.47;75.49;97726.25;5049833;28;20033;-76
2022/12/09 03:23:55;;;;;;;19.65;11.15;;;;;;;2.47;75.28;97720.03;5051178;28;20430;-77
2022/12/09 03:26:22;;;;;;;22.95;13.13;;;;;;;2.48;75.51;97718.97;5050761;28;20425;-76
2022/12/09 03:28:50;;;;;;;42.65;21.75;;;;;;;2.48;75.33;97722.47;5050632;28;20029;-77
2022/12/09 03:31:20;;;;;;;38.53;20.92;;;;;;;2.48;75.95;97719.78;5051103;28;20082;-77
2022/12/09 03:33:49;;;;;;;22.73;12.93;;;;;;;2.47;76.05;97720.84;5050917;28;20044;-77
2022/12/09 03:36:17;;;;;;;18.50;12.07;;;;;;;2.46;75.11;97721.13;5050464;28;20480;-77
2022/12/09 03:38:45;;;;;;;19.80;11.98;;;;;;;2.45;75.73;97723.00;5049927;28;20272;-77
2022/12/09 03:41:23;;;;;;;25.95;15.93;;;;;;;2.45;75.80;97719.50;5051617;28;20074;-77
2022/12/09 03:43:54;;;;;;;28.13;16.95;;;;;;;2.45;76.05;97720.28;5051202;28;20021;-77
2022/12/09 03:46:21;;;;;;;39.58;20.20;;;;;;;2.44;75.23;97709.75;5049986;28;20025;-77
2022/12/09 03:48:48;;;;;;;39.63;22.65;;;;;;;2.42;75.96;97718.13;5051063;28;20025;-75
2022/12/09 03:51:20;;;;;;;35.55;19.42;;;;;;;2.44;76.01;97715.97;5051181;28;20513;-75
2022/12/09 03:53:55;;;;;;;23.65;14.70;;;;;;;2.46;75.31;97724.63;5051159;28;20597;-75
2022/12/09 03:56:25;;;;;;;21.08;12.68;;;;;;;2.45;75.85;97714.06;5050875;28;20025;-75
2022/12/09 03:58:54;;;;;;;18.33;12.48;;;;;;;2.44;75.46;97720.56;5050912;28;20163;-75
2022/12/09 04:01:22;;;;;;;21.80;13.02;;;;;;;2.44;75.79;97721.41;5050971;28;20052;-75
2022/12/09 04:03:51;;;;;;;22.15;13.57;;;;;;;2.40;75.98;97717.56;5050976;28;20033;-75
2022/12/09 04:06:17;;;;;;;22.70;14.43;;;;;;;2.35;75.71;97714.84;5050791;28;20385;-75
2022/12/09 04:08:43;;;;;;;25.20;14.93;;;;;;;2.32;75.30;97718.06;5051135;28;20032;-75
2022/12/09 04:11:08;;;;;;;33.20;18.92;;;;;;;2.29;75.71;97721.28;5051019;28;20111;-75
2022/12/09 04:13:33;;;;;;;21.05;13.32;;;;;;;2.25;76.12;97723.69;5033212;28;20033;-75
2022/12/09 04:16:00;;;;;;;20.70;12.90;;;;;;;2.25;75.93;97714.75;5050636;28;20025;-75
2022/12/09 04:18:25;;;;;;;21.38;12.88;;;;;;;2.26;75.73;97713.69;5050551;28;20052;-75
2022/12/09 04:20:51;;;;;;;20.88;13.45;;;;;;;2.25;76.27;97717.47;5050743;28;20061;-76
2022/12/09 04:23:16;;;;;;;21.63;13.95;;;;;;;2.23;75.86;97718.53;5050019;28;20027;-75
2022/12/09 04:25:42;;;;;;;20.05;12.90;;;;;;;2.20;76.04;97718.25;5049895;28;20358;-76
2022/12/09 04:28:07;;;;;;;20.98;13.63;;;;;;;2.17;75.34;97718.78;5049859;28;20126;-76
2022/12/09 04:30:33;;;;;;;20.73;12.70;;;;;;;2.13;76.05;97709.53;5049928;28;20025;-75
2022/12/09 04:32:59;;;;;;;22.52;14.93;;;;;;;2.08;75.73;97708.44;5050029;28;20078;-77
2022/12/09 04:35:26;;;;;;;21.30;14.70;;;;;;;2.07;75.45;97723.03;5050276;28;20056;-76
2022/12/09 04:37:51;;;;;;;19.63;13.45;;;;;;;2.03;75.40;97710.28;5047958;28;20025;-77
2022/12/09 04:40:18;;;;;;;22.50;13.48;;;;;;;1.99;75.76;97715.38;5049959;28;20036;-76
2022/12/09 04:42:43;;;;;;;21.15;13.52;;;;;;;1.98;75.78;97705.63;5050174;28;20385;-77
2022/12/09 04:45:09;;;;;;;23.58;14.50;;;;;;;1.98;75.53;97713.75;5049551;28;20029;-76
2022/12/09 04:47:34;;;;;;;20.50;14.02;;;;;;;1.96;75.37;97717.81;5049642;28;20025;-76
2022/12/09 04:49:59;;;;;;;22.20;13.80;;;;;;;1.92;75.46;97715.63;5050067;28;20029;-76
2022/12/09 04:52:25;;;;;;;20.42;13.52;;;;;;;1.88;75.97;97709.09;5049983;28;20039;-77
2022/12/09 04:54:50;;;;;;;22.90;15.07;;;;;;;1.84;76.33;97712.53;5050418;28;20116;-76
2022/12/09 04:57:16;;;;;;;22.25;14.52;;;;;;;1.81;75.43;97721.19;5049595;28;20025;-77
2022/12/09 04:59:42;;;;;;;27.27;17.08;;;;;;;1.79;75.78;97707.94;5048309;28;20021;-76
2022/12/09 05:02:07;;;;;;;24.80;15.30;;;;;;;1.75;75.46;97718.44;5050389;28;20032;-76
2022/12/09 05:04:33;;;;;;;25.10;15.48;;;;;;;1.73;76.07;97719.75;5050542;28;20021;-77
2022/12/09 05:06:58;;;;;;;24.85;15.30;;;;;;;1.69;76.21;97729.44;5050638;28;20017;-77
2022/12/09 05:09:23;;;;;;;25.08;15.63;;;;;;;1.65;75.97;97715.66;5049757;28;20099;-77
2022/12/09 05:11:50;;;;;;;25.60;16.50;;;;;;;1.67;75.58;97718.06;5049113;28;20025;-77
2022/12/09 05:14:16;;;;;;;24.10;15.52;;;;;;;1.66;75.33;97717.28;5050628;28;20029;-77
2022/12/09 05:16:42;;;;;;;27.65;15.77;;;;;;;1.63;75.97;97720.50;5050441;28;20032;-76
2022/12/09 05:19:07;;;;;;;26.10;16.13;;;;;;;1.61;75.94;97722.63;5049764;28;20405;-77
2022/12/09 05:21:32;;;;;;;25.52;16.00;;;;;;;1.60;75.78;97721.00;5050384;28;20104;-77
2022/12/09 05:24:00;;;;;;;28.13;16.98;;;;;;;1.60;75.69;97723.69;5049200;28;20023;-77
2022/12/09 05:26:25;;;;;;;25.58;16.23;;;;;;;1.58;75.77;97723.97;5047864;28;20564;-78
2022/12/09 05:28:50;;;;;;;25.48;16.45;;;;;;;1.58;76.08;97718.56;5048661;28;20112;-78
2022/12/09 05:31:19;;;;;;;26.17;15.40;;;;;;;1.61;75.41;97731.56;5048990;28;20446;-77
2022/12/09 05:33:45;;;;;;;23.58;14.48;;;;;;;1.60;76.27;97729.09;5050140;28;20021;-77
2022/12/09 05:36:13;;;;;;;24.73;14.02;;;;;;;1.59;75.99;97719.38;5050167;28;20029;-77
2022/12/09 05:38:39;;;;;;;26.73;15.95;;;;;;;1.58;75.32;97721.28;5049904;28;20025;-77
2022/12/09 05:41:05;;;;;;;23.77;14.32;;;;;;;1.55;75.38;97724.47;5049866;28;20104;-77
2022/12/09 05:43:31;;;;;;;25.42;15.52;;;;;;;1.52;75.24;97725.00;5050479;28;20021;-77
2022/12/09 05:45:57;;;;;;;28.00;17.55;;;;;;;1.49;75.19;97722.78;5048748;28;20029;-77
2022/12/09 05:48:23;;;;;;;26.00;15.60;;;;;;;1.45;75.09;97733.28;5049975;28;20756;-78
2022/12/09 05:50:59;;;;;;;28.25;18.02;;;;;;;1.42;75.38;97725.72;5049658;28;20527;-77
2022/12/09 05:53:25;;;;;;;32.33;19.08;;;;;;;1.41;75.19;97721.38;5049742;28;20443;-77
2022/12/09 05:55:50;;;;;;;28.55;17.48;;;;;;;1.38;75.57;97723.75;5048985;28;20017;-78
2022/12/09 05:58:16;;;;;;;24.40;15.00;;;;;;;1.32;74.97;97723.69;5049624;28;20021;-78
2022/12/09 06:00:41;;;;;;;24.27;15.15;;;;;;;1.28;75.22;97727.16;5049107;28;20363;-77
2022/12/09 06:03:06;;;;;;;26.58;16.08;;;;;;;1.26;75.34;97732.00;5049577;28;20029;-78
2022/12/09 06:05:32;;;;;;;24.77;16.50;;;;;;;1.23;75.37;97724.41;5052790;28;20380;-78
2022/12/09 06:07:57;;;;;;;26.08;15.40;;;;;;;1.21;75.06;97727.38;5053586;28;20029;-77
2022/12/09 06:10:23;;;;;;;27.05;16.92;;;;;;;1.17;74.88;97726.25;5053244;28;20527;-78
2022/12/09 06:12:48;;;;;;;28.60;17.38;;;;;;;1.14;75.62;97724.84;5053489;28;20728;-78
2022/12/09 06:15:13;;;;;;;29.13;17.08;;;;;;;1.12;75.31;97728.88;5053496;28;20032;-78
2022/12/09 06:17:39;;;;;;;31.30;18.38;;;;;;;1.08;75.28;97725.84;5053318;28;20032;-78
2022/12/09 06:20:05;;;;;;;28.58;17.98;;;;;;;1.04;75.01;97720.16;5052826;28;20025;-78
2022/12/09 06:22:30;;;;;;;32.53;18.35;;;;;;;1.02;74.68;97716.91;5052833;28;20029;-78
2022/12/09 06:24:56;;;;;;;30.38;18.45;;;;;;;0.99;74.70;97720.09;5053160;28;20074;-78
2022/12/09 06:27:21;;;;;;;32.60;19.60;;;;;;;0.96;75.26;97715.19;5051131;28;20551;-78
2022/12/09 06:29:46;;;;;;;36.92;21.73;;;;;;;0.94;74.54;97711.13;5052713;28;20037;-77
2022/12/09 06:32:12;;;;;;;37.75;21.75;;;;;;;0.92;75.11;97710.56;5052597;28;20024;-78
2022/12/09 06:34:37;;;;;;;40.45;22.48;;;;;;;0.86;74.94;97705.09;5052723;28;20416;-78
2022/12/09 06:37:02;;;;;;;38.80;22.38;;;;;;;0.86;74.75;97704.25;5051280;28;20029;-78
2022/12/09 06:39:29;;;;;;;39.78;22.60;;;;;;;0.81;74.32;97705.03;5052461;28;20087;-77
2022/12/09 06:41:54;;;;;;;41.90;23.02;;;;;;;0.80;74.42;97703.41;5050629;28;20071;-77
2022/12/09 06:44:20;;;;;;;44.20;24.02;;;;;;;0.79;74.34;97698.28;5050311;28;20056;-77
2022/12/09 06:46:45;;;;;;;45.47;26.08;;;;;;;0.80;74.96;97691.81;5051421;28;20488;-76
2022/12/09 06:49:10;;;;;;;44.92;25.27;;;;;;;0.79;74.96;97701.78;5049399;28;20032;-77
2022/12/09 06:51:36;;;;;;;47.78;25.52;;;;;;;0.77;74.73;97695.00;5050471;28;20028;-77
2022/12/09 06:54:01;;;;;;;43.22;24.13;;;;;;;0.76;75.26;97691.47;5032987;28;20565;-77
2022/12/09 06:56:26;;;;;;;42.55;25.70;;;;;;;0.76;75.41;97694.16;5050818;28;20036;-77
2022/12/09 06:58:52;;;;;;;44.78;24.88;;;;;;;0.76;74.66;97685.28;5050852;28;20653;-76
2022/12/09 07:01:20;;;;;;;47.42;26.10;;;;;;;0.75;74.80;97687.13;5051163;28;20517;-77
2022/12/09 07:03:49;;;;;;;46.42;24.77;;;;;;;0.73;75.07;97691.97;5050701;28;20039;-77
2022/12/09 07:06:30;;;;;;;52.78;27.40;;;;;;;0.69;74.34;97688.97;5051075;28;20025;-76
2022/12/09 07:08:58;;;;;;;55.95;28.60;;;;;;;0.68;74.65;97692.72;5049442;28;20094;-76
2022/12/09 07:11:24;;;;;;;53.53;29.13;;;;;;;0.69;74.62;97696.22;5050758;28;20132;-77
2022/12/09 07:13:50;;;;;;;54.88;27.40;;;;;;;0.66;75.10;97691.34;5049243;28;20116;-76
2022/12/09 07:16:15;;;;;;;50.17;26.48;;;;;;;0.66;74.45;97688.63;5050211;28;20220;-76
2022/12/09 07:18:41;;;;;;;56.70;28.58;;;;;;;0.65;74.90;97695.09;5044682;28;20112;-76
2022/12/09 07:21:16;;;;;;;56.45;28.20;;;;;;;0.64;74.77;97697.00;5049873;28;20228;-75
2022/12/09 07:23:42;;;;;;;68.15;30.73;;;;;;;0.62;74.34;97701.00;5047747;28;20040;-76
2022/12/09 07:26:09;;;;;;;71.28;33.25;;;;;;;0.58;74.06;97698.00;5044070;28;20083;-75
2022/12/09 07:28:38;;;;;;;71.47;33.00;;;;;;;0.55;74.69;97702.03;5049458;28;20029;-75
2022/12/09 07:31:04;;;;;;;78.57;35.67;;;;;;;0.52;74.35;97693.59;5049931;28;20036;-79
2022/12/09 07:33:30;;;;;;;83.50;36.40;;;;;;;0.50;74.22;97699.25;5065027;28;20029;-77
2022/12/09 07:35:57;;;;;;;86.80;37.78;;;;;;;0.50;74.32;97698.41;5049536;28;20048;-80
2022/12/09 07:38:24;;;;;;;84.80;39.85;;;;;;;0.50;74.01;97698.41;5047061;28;20536;-77
2022/12/09 07:40:49;;;;;;;96.47;41.08;;;;;;;0.48;74.29;97701.38;5049140;28;20029;-79
2022/12/09 07:43:18;;;;;;;86.07;40.47;;;;;;;0.50;74.37;97704.66;5048439;28;20086;-81
2022/12/09 07:45:44;;;;;;;89.55;40.90;;;;;;;0.49;74.06;97708.41;5048482;28;20374;-79
2022/12/09 07:48:10;;;;;;;82.90;39.45;;;;;;;0.51;74.85;97702.75;5049284;28;20025;-77
2022/12/09 07:50:36;;;;;;;82.93;40.00;;;;;;;0.54;74.32;97710.34;5048016;28;20035;-78
2022/12/09 07:53:02;;;;;;;81.30;38.75;;;;;;;0.53;74.05;97706.00;5047262;28;20045;-78
2022/12/09 07:55:27;;;;;;;81.53;39.80;;;;;;;0.53;74.57;97711.41;5047860;28;20056;-78
2022/12/09 07:57:52;;;;;;;76.68;37.67;;;;;;;0.54;74.63;97711.19;5048686;28;20100;-79
2022/12/09 08:00:18;;;;;;;82.55;41.10;;;;;;;0.54;74.50;97711.19;5050190;28;20025;-80
2022/12/09 08:02:43;;;;;;;91.95;41.72;;;;;;;0.55;74.47;97718.22;5051834;28;20033;-79
2022/12/09 08:05:09;;;;;;;101.75;43.85;;;;;;;0.56;74.25;97714.44;5049327;28;20035;-80
2022/12/09 08:07:34;;;;;;;112.90;49.63;;;;;;;0.59;74.76;97721.22;5051101;28;20055;-82
2022/12/09 08:10:00;;;;;;;150.77;57.30;;;;;;;0.61;74.95;97715.59;5048266;28;20028;-82
2022/12/09 08:12:25;;;;;;;170.40;61.08;;;;;;;0.67;74.40;97717.25;5047169;28;20119;-80
2022/12/09 08:14:50;;;;;;;172.82;62.92;;;;;;;0.72;74.42;97715.47;5049641;28;20558;-82
2022/12/09 08:17:16;;;;;;;174.38;65.10;;;;;;;0.78;74.19;97715.53;5053585;28;20028;-81
2022/12/09 08:19:41;;;;;;;185.55;66.00;;;;;;;0.83;74.89;97718.25;5048329;28;20078;-82
2022/12/09 08:22:07;;;;;;;165.65;61.33;;;;;;;0.86;74.49;97721.28;5047980;28;20033;-80
2022/12/09 08:24:32;;;;;;;146.70;58.40;;;;;;;0.94;74.68;97717.31;5047218;28;20033;-80
2022/12/09 08:26:58;;;;;;;159.45;60.33;;;;;;;1.02;75.42;97710.66;5047175;28;20023;-78
2022/12/09 08:29:24;;;;;;;131.02;53.17;;;;;;;1.08;75.30;97706.16;5051321;28;20028;-81
2022/12/09 08:31:50;;;;;;;123.57;48.13;;;;;;;1.14;75.28;97716.75;5051715;28;20078;-80
2022/12/09 08:34:15;;;;;;;120.43;51.38;;;;;;;1.19;74.86;97703.31;5050537;28;20033;-81
2022/12/09 08:36:41;;;;;;;122.97;52.05;;;;;;;1.28;75.53;97703.66;5049448;28;20056;-81
2022/12/09 08:39:07;;;;;;;122.45;52.05;;;;;;;1.36;75.03;97707.81;5051097;28;20028;-81
2022/12/09 08:41:34;;;;;;;126.75;54.90;;;;;;;1.45;75.08;97702.75;5050013;28;20036;-81
2022/12/09 08:44:01;;;;;;;119.05;53.35;;;;;;;1.53;74.97;97704.16;5052714;28;20029;-80
2022/12/09 08:46:27;;;;;;;110.03;47.80;;;;;;;1.60;75.35;97694.81;5051540;28;20024;-80
2022/12/09 08:48:56;;;;;;;106.00;47.33;;;;;;;1.68;75.56;97698.09;5048483;28;20033;-80
2022/12/09 08:51:21;;;;;;;120.93;52.85;;;;;;;1.77;75.04;97702.78;5050100;28;20035;-81
2022/12/09 08:53:46;;;;;;;176.93;75.57;;;;;;;1.83;75.48;97698.22;5050188;28;21456;-79
2022/12/09 08:56:14;;;;;;;175.48;72.30;;;;;;;1.89;75.60;97693.66;5048568;28;20045;-82
2022/12/09 08:58:43;;;;;;;138.13;59.22;;;;;;;1.95;74.98;97694.53;5046683;28;20060;-83
2022/12/09 09:01:30;;;;;;;114.07;54.05;;;;;;;2.01;75.04;97697.00;5052471;28;20028;-80
2022/12/09 09:03:56;;;;;;;98.57;49.28;;;;;;;2.14;75.27;97701.16;5048443;28;20120;-81
2022/12/09 09:06:21;;;;;;;84.93;40.30;;;;;;;2.21;75.74;97690.94;5052715;28;20035;-80
2022/12/09 09:08:47;;;;;;;81.53;39.50;;;;;;;2.31;76.07;97695.59;5050342;28;20074;-83
2022/12/09 09:11:18;;;;;;;83.32;41.53;;;;;;;2.42;75.71;97685.66;5048677;28;20033;-80
2022/12/09 09:13:46;;;;;;;97.07;48.70;;;;;;;2.49;75.60;97691.63;5048119;28;20432;-79
2022/12/09 09:16:18;;;;;;;102.85;49.30;;;;;;;2.56;75.29;97685.16;5051759;28;20175;-80
2022/12/09 09:18:44;;;;;;;108.95;52.17;;;;;;;2.59;75.62;97680.06;5046426;28;20021;-78
2022/12/09 09:21:11;;;;;;;117.05;56.47;;;;;;;2.63;75.28;97677.63;5047497;28;20093;-81
2022/12/09 09:23:37;;;;;;;122.15;57.38;;;;;;;2.65;75.66;97670.06;5048098;28;20603;-78
2022/12/09 09:26:03;;;;;;;95.72;48.92;;;;;;;2.71;75.30;97679.00;5051842;28;20111;-78
2022/12/09 09:28:28;;;;;;;101.65;53.65;;;;;;;2.77;75.86;97670.66;5050533;28;20044;-80
2022/12/09 09:31:01;;;;;;;101.75;53.67;;;;;;;2.83;75.76;97674.19;5049320;28;20040;-78
2022/12/09 09:33:27;;;;;;;128.75;65.15;;;;;;;2.92;75.80;97659.06;5048109;28;20477;-79
2022/12/09 09:36:01;;;;;;;195.13;94.72;;;;;;;2.97;76.20;97666.38;5048757;28;20104;-78
2022/12/09 09:38:27;;;;;;;203.57;97.07;;;;;;;3.00;75.59;97665.84;5047046;28;20504;-78
2022/12/09 09:40:55;;;;;;;170.60;81.95;;;;;;;3.05;75.45;97657.75;5052827;28;20494;-79
2022/12/09 09:43:25;;;;;;;157.30;73.95;;;;;;;3.10;76.24;97660.47;5055120;28;20032;-77
2022/12/09 09:45:52;;;;;;;;;;;;;;;3.20;75.73;97650.75;5052347;28;20092;-79
2022/12/09 09:48:21;;;;;;;124.88;58.58;;;;;;;3.25;75.78;97656.97;5053933;28;19916;-78
2022/12/09 09:50:56;;;;;;;116.68;56.13;;;;;;;3.31;76.00;97657.00;5053599;28;20037;-79
2022/12/09 09:53:30;;;;;;;115.15;55.58;;;;;;;3.34;75.43;97659.97;5051888;28;20045;-78
2022/12/09 09:56:00;;;;;;;112.63;58.85;;;;;;;3.38;75.78;97655.63;5051194;28;20108;-77
2022/12/09 09:58:36;;;;;;;116.57;57.92;;;;;;;3.40;76.06;97656.19;5058693;28;20115;-76
2022/12/09 10:01:06;;;;;;;121.60;58.70;;;;;;;3.44;75.72;97653.75;5054936;28;20029;-75
2022/12/09 10:03:59;;;;;;;128.07;60.92;;;;;;;3.42;76.01;97648.59;5052353;28;20036;-75
2022/12/09 10:06:43;;;;;;;118.53;60.33;;;;;;;3.46;75.96;97654.31;5051668;28;20071;-76
2022/12/09 10:09:46;;;;;;;129.07;65.20;;;;;;;3.45;75.69;97641.84;5052589;28;20028;-76
2022/12/09 10:12:36;;;;;;;119.30;61.92;;;;;;;3.51;75.82;97645.34;5052643;28;20029;-76
2022/12/09 10:15:13;;;;;;;114.35;58.20;;;;;;;3.55;75.70;97641.03;5050709;28;20055;-76
2022/12/09 10:17:49;;;;;;;108.88;57.33;;;;;;;3.59;75.35;97633.97;5053234;28;20032;-74
2022/12/09 10:20:41;;;;;;;116.95;58.88;;;;;;;3.61;75.74;97633.69;5055590;28;20059;-76
2022/12/09 10:23:15;;;;;;;122.07;55.35;;;;;;;3.63;75.75;97639.66;5050224;28;20040;-76
2022/12/09 10:25:49;;;;;;;114.35;55.13;;;;;;;3.64;75.87;97633.97;5053989;28;20036;-76
2022/12/09 10:28:31;;;;;;;109.25;55.60;;;;;;;3.65;75.85;97627.47;5051000;28;20495;-77
2022/12/09 10:30:56;;;;;;;105.90;53.90;;;;;;;3.68;75.15;97634.25;5052392;28;20120;-77
2022/12/09 10:33:32;;;;;;;101.47;49.65;;;;;;;3.69;75.27;97633.16;5052019;28;20487;-77
2022/12/09 10:35:57;;;;;;;91.50;47.47;;;;;;;3.70;75.73;97637.50;5052243;28;20393;-77
2022/12/09 10:38:24;;;;;;;100.30;49.67;;;;;;;3.71;75.39;97629.06;5052255;28;20032;-75
2022/12/09 10:40:53;;;;;;;106.28;51.53;;;;;;;3.72;75.21;97627.19;5052166;28;20029;-78
2022/12/09 10:43:33;;;;;;;110.20;52.72;;;;;;;3.72;75.96;97622.56;5051393;28;20025;-76
2022/12/09 10:45:59;;;;;;;;;;;;;;;3.75;75.23;97610.38;5048031;28;20013;-76
2022/12/09 10:48:29;;;;;;;98.93;48.53;;;;;;;3.75;75.11;97626.66;5050863;28;20446;-76
2022/12/09 10:50:58;;;;;;;101.90;49.42;;;;;;;3.75;75.54;97623.94;5049765;28;20029;-76
2022/12/09 10:53:25;;;;;;;105.00;50.03;;;;;;;3.77;75.82;97624.47;5051060;28;20063;-76
2022/12/09 10:55:53;;;;;;;112.05;52.85;;;;;;;3.79;75.64;97619.59;5048834;28;20025;-75
2022/12/09 10:58:22;;;;;;;104.10;52.10;;;;;;;3.80;75.78;97614.97;5050435;28;20021;-76
2022/12/09 11:01:01;;;;;;;102.30;50.55;;;;;;;3.82;75.55;97597.34;5048669;28;20029;-76
2022/12/09 11:03:39;;;;;;;97.37;48.00;;;;;;;3.85;75.15;97598.69;5050352;28;20036;-76
2022/12/09 11:06:23;;;;;;;92.80;47.65;;;;;;;3.85;75.44;97598.69;5051175;28;20728;-76
2022/12/09 11:08:57;;;;;;;98.65;45.40;;;;;;;3.86;75.50;97597.59;5050371;28;20047;-76
2022/12/09 11:11:44;;;;;;;101.15;47.00;;;;;;;3.85;75.85;97590.56;5050649;28;20044;-77
2022/12/09 11:14:25;;;;;;;87.38;43.40;;;;;;;3.86;75.14;97584.03;5050381;28;20474;-77
2022/12/09 11:16:54;;;;;;;85.32;42.95;;;;;;;3.89;75.79;97586.22;5049507;28;20382;-77
2022/12/09 11:19:34;;;;;;;83.30;41.38;;;;;;;3.90;75.18;97585.13;5051174;28;20033;-79
2022/12/09 11:22:18;;;;;;;89.97;43.92;;;;;;;3.91;75.42;97570.47;5050143;28;20531;-78
2022/12/09 11:24:44;;;;;;;88.97;43.28;;;;;;;3.94;75.73;97569.94;5050855;28;20031;-79
2022/12/09 11:27:47;;;;;;;81.40;41.15;;;;;;;3.96;75.60;97558.78;5050158;28;20024;-77
2022/12/09 11:30:24;;;;;;;73.13;39.33;;;;;;;3.99;76.07;97563.66;5050743;28;20037;-77
2022/12/09 11:32:58;;;;;;;70.45;36.78;;;;;;;4.02;75.63;97565.84;5051376;28;20359;-77